Time;durP1;ratioP1;P1;durP2;ratioP2;P2;SDS_P1;SDS_P2;PMS_P1;PMS_P2;Temp;Humidity;BMP_temperature;BMP_pressure;BME280_temperature;BME280_humidity;BME280_pressure;Samples;Min_cycle;Max_cycle;Signal;HPM_P1;HPM_P2
2022/09/05 00:02:32;;;;;;;21.40;3.85;;;;;;;16.72;94.15;100012.31;6213212;23;20455;-40
2022/09/05 00:05:35;;;;;;;21.83;3.42;;;;;;;16.70;94.72;100021.13;6212623;23;20032;-41
2022/09/05 00:08:42;;;;;;;23.95;4.93;;;;;;;16.69;94.96;99990.75;6212758;23;20103;-40
2022/09/05 00:11:35;;;;;;;19.70;4.57;;;;;;;16.69;95.42;99999.13;6214133;23;20467;-41
2022/09/05 00:14:26;;;;;;;22.85;4.55;;;;;;;16.69;95.59;99996.34;6213367;23;20043;-41
2022/09/05 00:17:55;;;;;;;32.35;4.90;;;;;;;16.66;95.99;99980.38;6214238;23;20471;-41
2022/09/05 00:21:14;;;;;;;24.08;6.20;;;;;;;16.62;96.41;99969.22;6136889;23;20100;-40
2022/09/05 00:24:32;;;;;;;24.48;5.00;;;;;;;16.55;97.21;99962.88;6215227;23;20017;-41
2022/09/05 00:27:29;;;;;;;29.83;4.70;;;;;;;16.49;97.65;99975.63;6214288;23;20024;-41
2022/09/05 00:30:17;;;;;;;28.10;4.10;;;;;;;16.44;98.13;99990.81;6216341;23;20016;-41
2022/09/05 00:33:13;;;;;;;17.20;3.85;;;;;;;16.42;98.35;99996.00;6214579;23;20108;-41
2022/09/05 00:36:01;;;;;;;14.43;3.40;;;;;;;16.40;98.52;99985.22;6214667;23;20029;-41
2022/09/05 00:39:05;;;;;;;19.77;2.67;;;;;;;16.38;98.78;99998.81;6213799;23;20099;-41
2022/09/05 00:41:57;;;;;;;12.70;3.50;;;;;;;16.38;98.89;100011.97;6212453;23;20031;-41
2022/09/05 00:49:12;;;;;;;17.30;3.13;;;;;;;16.37;98.91;100019.56;6213642;23;20024;-41
2022/09/05 00:52:05;;;;;;;13.68;2.70;;;;;;;16.35;98.43;100015.56;6213994;23;20048;-41
2022/09/05 00:55:22;;;;;;;8.95;2.30;;;;;;;16.34;98.39;100014.75;6212818;23;20060;-41
2022/09/05 00:58:33;;;;;;;10.40;2.22;;;;;;;16.32;97.94;100011.59;6211894;23;20056;-41
2022/09/05 01:01:36;;;;;;;10.30;2.15;;;;;;;16.29;97.50;100004.00;6212209;23;20025;-41
2022/09/05 01:04:26;;;;;;;;;;;;;;;16.25;97.50;100008.00;6215899;23;20099;-41
2022/09/05 01:07:37;;;;;;;14.73;2.17;;;;;;;16.23;96.99;100002.03;6213819;23;19920;-41
2022/09/05 01:10:58;;;;;;;11.52;2.00;;;;;;;16.20;96.68;99995.22;6215513;23;20459;-41
2022/09/05 01:14:04;;;;;;;10.27;2.20;;;;;;;16.19;96.32;99993.66;6215121;23;20056;-44
2022/09/05 01:17:31;;;;;;;12.07;2.38;;;;;;;16.19;96.09;99984.47;6212921;23;20031;-41
2022/09/05 01:20:42;;;;;;;9.95;1.52;;;;;;;16.18;95.92;99982.88;6214036;23;20103;-41
2022/09/05 01:23:47;;;;;;;11.35;2.47;;;;;;;16.15;95.84;99978.88;6215069;23;20024;-41
2022/09/05 01:27:03;;;;;;;7.53;2.60;;;;;;;16.16;95.21;99997.25;6215776;23;20400;-41
2022/09/05 01:30:06;;;;;;;11.20;1.83;;;;;;;16.15;94.60;99989.28;6215280;23;20021;-41
2022/09/05 01:33:25;;;;;;;10.90;2.65;;;;;;;16.10;93.93;99993.25;6213294;23;20151;-41
2022/09/05 01:36:25;;;;;;;8.20;1.73;;;;;;;16.10;93.15;99998.84;6192262;23;20044;-41
2022/09/05 01:39:33;;;;;;;13.25;2.58;;;;;;;16.08;92.78;99998.44;6213196;23;20025;-41
2022/09/05 01:42:57;;;;;;;9.93;1.70;;;;;;;16.05;92.48;100006.81;6215611;22;20024;-41
2022/09/05 01:45:49;;;;;;;7.30;1.92;;;;;;;16.02;92.11;100007.63;6214809;23;20060;-41
2022/09/05 01:49:01;;;;;;;11.10;1.42;;;;;;;15.98;91.76;100010.41;6215230;23;20025;-41
2022/09/05 01:52:00;;;;;;;9.05;1.52;;;;;;;15.97;91.27;100028.34;6213331;23;20025;-45
2022/09/05 01:55:43;;;;;;;6.70;1.20;;;;;;;15.93;90.76;100047.13;6213452;23;20103;-41
2022/09/05 01:59:08;;;;;;;5.15;1.15;;;;;;;15.89;90.52;100049.09;6092723;23;20477;-41
2022/09/05 02:02:32;;;;;;;4.13;1.00;;;;;;;15.85;89.89;100051.09;6108959;23;20065;-41
2022/09/05 02:05:26;;;;;;;8.05;1.02;;;;;;;15.83;89.56;100050.69;6215719;23;20029;-42
2022/09/05 02:08:50;;;;;;;7.50;1.33;;;;;;;15.78;89.19;100051.88;6215688;23;20035;-41
2022/09/05 02:11:37;;;;;;;4.60;1.00;;;;;;;15.73;88.73;100055.06;6214622;22;20095;-41
2022/09/05 02:14:42;;;;;;;9.30;1.90;;;;;;;15.67;87.96;100076.16;6216321;23;20025;-41
2022/09/05 02:17:41;;;;;;;10.02;1.67;;;;;;;15.63;87.76;100074.56;6215641;22;20028;-41
2022/09/05 02:20:40;;;;;;;5.88;1.42;;;;;;;15.56;87.32;100085.72;6213140;23;20033;-41
2022/09/05 02:23:42;;;;;;;7.90;1.77;;;;;;;15.52;87.13;100096.06;6214573;23;20130;-41
2022/09/05 02:27:05;;;;;;;2.03;0.88;;;;;;;15.46;86.76;100120.75;6214229;23;20103;-40
2022/09/05 02:30:22;;;;;;;6.35;1.15;;;;;;;15.40;86.50;100127.09;6183688;23;20024;-41
2022/09/05 02:33:24;;;;;;;2.08;0.73;;;;;;;15.36;86.04;100159.72;6214229;23;20031;-41
2022/09/05 02:36:44;;;;;;;9.95;1.52;;;;;;;15.33;85.64;100154.97;6185964;23;20126;-44
2022/09/05 02:39:44;;;;;;;5.30;1.27;;;;;;;15.30;85.01;100150.97;6185917;23;20029;-41
2022/09/05 02:43:06;;;;;;;11.32;1.30;;;;;;;15.27;84.34;100162.09;6184800;23;20149;-41
2022/09/05 02:46:29;;;;;;;5.73;0.90;;;;;;;15.21;83.89;100173.63;6185219;23;20032;-40
2022/09/05 02:49:49;;;;;;;4.70;1.95;;;;;;;15.19;83.31;100189.94;6186578;23;20032;-41
2022/09/05 02:52:57;;;;;;;7.07;1.55;;;;;;;15.16;83.26;100190.72;6164068;23;20363;-41
2022/09/05 06:53:20;;;;;;;11.38;1.75;;;;;;;13.98;85.74;100429.47;6226592;22;20031;-41
2022/09/05 06:56:27;;;;;;;9.15;2.03;;;;;;;14.06;85.73;100443.50;6241679;23;20074;-41
2022/09/05 07:07:33;;;;;;;12.02;1.30;;;;;;;14.16;85.97;100442.84;6245993;23;20019;-41
2022/09/05 07:14:09;;;;;;;12.75;2.15;;;;;;;14.29;85.98;100435.84;6153923;23;20013;-41
2022/09/05 07:16:46;;;;;;;12.90;2.25;;;;;;;14.34;85.98;100438.34;6153722;23;20076;-41
2022/09/05 07:19:54;;;;;;;9.82;1.85;;;;;;;14.40;85.83;100434.81;6240283;23;20024;-41
2022/09/05 07:26:17;;;;;;;10.00;1.50;;;;;;;14.57;85.71;100430.66;6244881;23;20015;-42
2022/09/05 07:29:06;;;;;;;9.57;1.33;;;;;;;14.66;85.36;100433.97;6241858;23;20020;-43
2022/09/05 07:31:37;;;;;;;15.27;1.77;;;;;;;14.72;85.25;100426.84;6244784;23;20044;-42
2022/09/05 07:34:18;;;;;;;16.65;1.65;;;;;;;14.77;84.88;100429.34;6246548;23;20027;-41
2022/09/05 07:36:54;;;;;;;12.48;2.65;;;;;;;14.83;84.43;100433.34;6240805;23;20070;-43
2022/09/05 07:39:56;;;;;;;16.48;2.75;;;;;;;14.87;84.38;100434.22;6246237;23;20016;-41
2022/09/05 07:46:32;;;;;;;13.63;2.00;;;;;;;14.99;84.04;100441.50;6246071;23;20016;-43
2022/09/05 07:49:13;;;;;;;8.57;1.67;;;;;;;15.01;84.01;100448.28;6245052;23;20071;-41
2022/09/05 07:52:20;;;;;;;11.88;2.22;;;;;;;15.04;84.00;100455.88;6242509;23;20039;-40
2022/09/05 07:55:34;;;;;;;8.45;1.52;;;;;;;15.07;83.92;100455.13;6244935;23;20086;-42
2022/09/05 07:58:50;;;;;;;12.80;1.95;;;;;;;15.13;84.01;100464.75;6246115;23;20024;-42
2022/09/05 08:01:41;;;;;;;9.40;1.73;;;;;;;15.18;84.36;100467.19;6244613;23;20024;-41
2022/09/05 08:04:34;;;;;;;11.57;2.05;;;;;;;15.32;84.48;100465.75;6246949;23;20403;-41
2022/09/05 08:07:31;;;;;;;16.73;3.33;;;;;;;15.48;84.35;100480.28;6242583;23;20031;-41
2022/09/05 08:10:43;;;;;;;11.65;1.85;;;;;;;15.58;84.45;100480.38;6242615;23;20477;-45
2022/09/05 08:22:04;;;;;;;12.95;2.60;;;;;;;15.97;85.22;100475.09;6245128;23;20083;-42
2022/09/05 08:25:16;;;;;;;21.48;2.70;;;;;;;16.08;85.88;100475.97;6204006;23;20028;-43
2022/09/05 08:28:19;;;;;;;14.07;2.92;;;;;;;16.23;86.75;100488.81;6245156;23;20103;-41
2022/09/05 08:31:18;;;;;;;13.90;2.08;;;;;;;16.41;87.68;100484.13;6246194;23;20408;-42
2022/09/05 08:34:12;;;;;;;17.85;2.00;;;;;;;16.61;88.99;100469.91;6247535;23;20102;-42
2022/09/05 08:37:01;;;;;;;9.85;1.88;;;;;;;16.81;89.93;100487.97;6247190;23;20461;-42
2022/09/05 08:40:57;;;;;;;22.02;2.83;;;;;;;17.14;90.74;100493.28;6224259;23;20042;-42
2022/09/05 08:44:15;;;;;;;11.32;2.63;;;;;;;17.56;91.31;100473.78;6126821;23;20025;-41
2022/09/05 08:47:59;;;;;;;14.07;2.65;;;;;;;18.05;92.83;100472.19;6246381;23;20325;-42
2022/09/05 09:00:06;;;;;;;17.58;3.40;;;;;;;20.98;81.09;100475.72;6248288;23;20024;-42
2022/09/05 09:03:11;;;;;;;29.05;5.28;;;;;;;20.64;76.64;100470.13;6248642;23;20342;-41
2022/09/05 09:05:53;;;;;;;27.27;4.22;;;;;;;20.14;74.86;100463.44;6247828;23;20051;-43
2022/09/05 09:09:03;;;;;;;25.70;3.35;;;;;;;19.64;74.16;100474.31;6248294;23;20027;-41
2022/09/05 09:11:40;;;;;;;19.38;2.63;;;;;;;19.19;73.75;100474.19;6244915;23;20095;-41
2022/09/05 09:14:44;;;;;;;17.40;2.75;;;;;;;18.90;73.63;100480.38;6248075;23;20016;-42
2022/09/05 09:21:33;;;;;;;15.93;2.58;;;;;;;18.55;73.94;100470.88;6247756;23;20398;-44
2022/09/05 09:24:16;;;;;;;18.27;3.00;;;;;;;18.59;73.48;100457.63;6247903;23;20016;-42
2022/09/05 09:26:56;;;;;;;12.02;2.60;;;;;;;18.53;73.95;100466.91;6245583;23;20023;-40
2022/09/05 09:29:24;;;;;;;20.25;2.97;;;;;;;18.51;74.00;100463.66;6246547;23;20036;-42
2022/09/05 09:36:18;;;;;;;20.30;5.20;;;;;;;18.31;74.47;100466.13;6243544;23;20024;-41
2022/09/05 09:39:24;;;;;;;15.80;3.03;;;;;;;18.81;74.15;100445.13;6243205;23;20016;-47
2022/09/05 09:42:36;;;;;;;26.13;3.40;;;;;;;19.27;74.24;100450.47;6243191;23;20024;-41
2022/09/05 09:53:46;;;;;;;19.75;3.67;;;;;;;22.37;66.27;100453.41;6228304;23;20021;-42
2022/09/05 10:01:27;;;;;;;13.60;2.80;;;;;;;22.37;64.26;100457.00;6217765;23;20107;-43
2022/09/05 10:04:57;;;;;;;20.63;3.40;;;;;;;22.90;62.36;100444.63;6206230;23;20029;-43
2022/09/05 10:08:30;;;;;;;24.83;4.40;;;;;;;23.83;60.63;100435.59;6216927;23;20477;-44
2022/09/05 10:11:52;;;;;;;20.08;3.75;;;;;;;24.16;59.34;100439.22;6217061;23;20024;-41
2022/09/05 10:15:09;;;;;;;18.85;3.45;;;;;;;24.60;58.46;100440.41;6214634;23;20036;-43
2022/09/05 10:18:25;;;;;;;17.70;4.57;;;;;;;24.47;56.61;100426.22;6216730;23;20082;-42
2022/09/05 10:21:23;;;;;;;19.13;3.50;;;;;;;23.97;56.80;100420.28;6217564;23;20054;-45
2022/09/05 10:24:37;;;;;;;18.02;4.28;;;;;;;24.06;56.79;100423.28;6216667;23;20024;-45
2022/09/05 10:27:51;;;;;;;16.73;3.33;;;;;;;23.83;56.30;100426.34;6216454;23;20082;-44
2022/09/05 10:30:44;;;;;;;17.67;3.17;;;;;;;23.66;56.22;100436.84;6216499;23;20091;-42
2022/09/05 10:34:15;;;;;;;24.35;3.83;;;;;;;23.74;56.03;100431.81;6217836;23;20437;-43
2022/09/05 10:37:42;;;;;;;20.13;3.33;;;;;;;23.90;55.60;100426.16;6214994;23;20185;-45
2022/09/05 10:40:33;;;;;;;21.90;4.35;;;;;;;24.16;55.10;100428.69;6217437;23;20024;-43
2022/09/05 10:43:47;;;;;;;21.50;3.10;;;;;;;24.19;54.52;100432.66;6217085;23;20350;-42
2022/09/05 10:46:47;;;;;;;14.73;3.47;;;;;;;24.10;54.76;100426.84;6213065;23;20028;-43
2022/09/05 10:49:43;;;;;;;15.60;3.30;;;;;;;23.94;54.91;100416.31;6216987;23;20029;-43
2022/09/05 10:52:56;;;;;;;16.48;3.70;;;;;;;23.71;55.59;100413.72;6212515;23;20466;-42
2022/09/05 10:55:57;;;;;;;16.80;4.32;;;;;;;23.11;56.15;100411.53;6196145;23;20087;-43
2022/09/05 10:58:58;;;;;;;18.98;3.25;;;;;;;22.43;57.67;100407.31;6217320;23;20056;-48
2022/09/05 11:02:25;;;;;;;18.10;4.00;;;;;;;21.92;58.95;100407.91;6213887;23;20035;-43
2022/09/05 11:05:34;;;;;;;19.30;3.33;;;;;;;21.58;59.85;100407.25;6215382;23;20107;-42
2022/09/05 11:08:31;;;;;;;15.63;3.58;;;;;;;21.20;60.89;100398.25;6214619;23;20025;-42
2022/09/05 11:15:45;;;;;;;19.10;3.72;;;;;;;20.57;62.56;100380.22;6214384;23;20460;-42
2022/09/05 11:19:12;;;;;;;15.18;3.10;;;;;;;20.28;63.55;100376.16;6213545;23;20107;-41
2022/09/05 11:26:14;;;;;;;12.98;2.95;;;;;;;19.78;64.57;100365.44;6215301;23;20347;-42
2022/09/05 11:29:11;;;;;;;18.80;3.05;;;;;;;19.69;64.56;100361.53;6193570;23;20521;-42
2022/09/05 11:32:11;;;;;;;12.82;2.88;;;;;;;19.58;64.87;100358.81;6213810;23;20074;-42
2022/09/05 11:35:20;;;;;;;17.58;4.18;;;;;;;19.47;65.44;100358.09;6217176;23;20024;-41
2022/09/05 11:42:52;;;;;;;15.48;3.45;;;;;;;19.40;66.93;100342.13;6211963;23;20066;-35
2022/09/05 11:49:55;;;;;;;16.35;3.33;;;;;;;19.34;67.90;100359.81;6215069;23;20024;-35
2022/09/05 11:53:11;;;;;;;21.25;2.92;;;;;;;19.42;68.17;100361.38;6220087;23;20056;-35
2022/09/05 11:56:12;;;;;;;26.77;4.00;;;;;;;19.47;68.10;100358.09;6243474;23;20109;-36
2022/09/05 11:59:07;;;;;;;23.10;4.47;;;;;;;19.51;68.45;100366.50;6242449;23;20024;-45
2022/09/05 12:02:13;;;;;;;17.08;4.03;;;;;;;19.44;68.91;100365.34;6222650;23;20094;-45
2022/09/05 12:05:21;;;;;;;18.52;3.58;;;;;;;19.34;69.61;100371.03;6240919;23;20378;-44
2022/09/05 12:08:31;;;;;;;16.30;3.85;;;;;;;19.29;69.64;100357.44;6244744;23;20357;-42
2022/09/05 12:11:34;;;;;;;17.45;3.70;;;;;;;19.33;70.21;100353.38;6242489;23;20098;-44
2022/09/05 12:14:40;;;;;;;25.88;3.80;;;;;;;19.46;70.40;100364.94;6240717;23;20066;-43
2022/09/05 12:18:18;;;;;;;22.02;3.90;;;;;;;19.48;70.01;100362.53;6244225;23;20022;-46
2022/09/05 12:21:30;;;;;;;15.63;3.53;;;;;;;19.47;69.96;100362.91;6244418;23;20103;-43
2022/09/05 12:25:08;;;;;;;31.75;5.18;;;;;;;19.47;70.02;100372.16;6240412;23;20031;-43
2022/09/05 12:28:31;;;;;;;15.98;3.70;;;;;;;19.53;69.82;100355.66;6233483;23;20028;-43
2022/09/05 12:31:51;;;;;;;17.95;3.55;;;;;;;19.63;69.59;100361.16;6244805;23;20417;-44
2022/09/05 12:39:48;;;;;;;14.00;3.70;;;;;;;19.86;68.31;100361.34;6244229;23;20742;-44
2022/09/05 12:42:59;;;;;;;13.93;2.83;;;;;;;19.95;67.35;100344.78;6244256;23;20024;-44
2022/09/05 12:46:55;;;;;;;13.45;3.72;;;;;;;20.00;66.94;100341.50;6244801;23;20027;-44
2022/09/05 12:49:47;;;;;;;15.10;2.92;;;;;;;20.12;67.09;100325.34;6243572;23;20024;-44
2022/09/05 12:52:45;;;;;;;17.90;3.72;;;;;;;20.02;67.18;100325.03;6245591;23;20031;-43
2022/09/05 12:55:43;;;;;;;14.95;3.03;;;;;;;20.01;66.70;100323.41;6241624;23;20454;-45
2022/09/05 12:58:52;;;;;;;10.98;2.60;;;;;;;20.12;67.09;100319.72;6243350;23;20031;-43
2022/09/05 13:02:05;;;;;;;16.25;2.85;;;;;;;20.32;65.92;100329.13;6244770;23;20039;-43
2022/09/05 13:05:16;;;;;;;21.35;3.47;;;;;;;20.20;65.84;100332.47;6243001;23;20028;-43
2022/09/05 13:08:09;;;;;;;10.63;3.05;;;;;;;20.08;66.19;100338.63;6244149;23;20028;-42
2022/09/05 13:10:57;;;;;;;14.63;4.40;;;;;;;20.24;66.47;100327.59;6243434;23;20035;-44
2022/09/05 13:14:16;;;;;;;9.73;3.40;;;;;;;20.39;65.30;100334.63;6243594;23;20350;-42
2022/09/05 13:21:26;;;;;;;18.63;4.00;;;;;;;20.24;66.19;100308.72;6246944;23;20020;-43
2022/09/05 13:24:21;;;;;;;15.90;4.07;;;;;;;20.21;65.99;100305.94;6246885;23;20081;-43
2022/09/05 13:27:30;;;;;;;15.85;3.55;;;;;;;20.02;66.47;100296.13;6244990;23;20052;-46
2022/09/05 13:30:18;;;;;;;18.75;3.70;;;;;;;19.81;66.76;100311.22;6243606;23;20105;-43
2022/09/05 13:33:51;;;;;;;19.30;4.93;;;;;;;19.75;66.92;100301.66;6245462;23;20024;-44
2022/09/05 13:37:14;;;;;;;26.65;3.75;;;;;;;19.70;67.47;100299.28;6248044;23;20163;-43
2022/09/05 13:40:27;;;;;;;15.73;3.83;;;;;;;19.70;67.43;100304.91;6246467;23;20103;-43
2022/09/05 13:43:21;;;;;;;24.55;4.57;;;;;;;19.68;67.56;100300.94;6245735;23;20020;-43
2022/09/05 13:46:18;;;;;;;16.67;3.67;;;;;;;19.73;67.40;100294.84;6242395;23;20104;-41
2022/09/05 13:49:35;;;;;;;16.60;3.15;;;;;;;19.77;67.44;100299.25;6243953;23;20028;-42
2022/09/05 13:52:44;;;;;;;12.45;2.42;;;;;;;19.84;67.58;100285.09;6247475;23;20047;-42
2022/09/05 13:55:52;;;;;;;14.45;2.47;;;;;;;20.02;67.24;100282.88;6244953;23;20078;-48
2022/09/05 13:59:18;;;;;;;14.40;3.53;;;;;;;20.23;66.90;100281.00;6241957;23;20123;-47
2022/09/05 14:10:53;;;;;;;13.25;2.80;;;;;;;21.15;65.43;100258.72;6243183;23;20016;-44
2022/09/05 14:22:06;;;;;;;11.68;2.42;;;;;;;21.18;64.44;100235.34;6240428;23;20095;-41
2022/09/05 14:24:59;;;;;;;15.20;3.67;;;;;;;21.10;64.73;100245.16;6246096;23;20024;-44
2022/09/05 14:31:55;;;;;;;16.85;2.83;;;;;;;21.02;65.24;100232.38;6246665;23;19920;-44
2022/09/05 14:35:27;;;;;;;14.85;3.30;;;;;;;21.06;65.15;100227.53;6244134;23;20046;-44
2022/09/05 14:38:53;;;;;;;18.53;3.87;;;;;;;21.07;65.11;100217.88;6246329;22;20034;-48
2022/09/05 14:41:52;;;;;;;17.08;3.90;;;;;;;20.92;65.02;100227.75;6224920;23;20024;-45
2022/09/05 14:45:29;;;;;;;14.05;3.35;;;;;;;20.83;66.04;100213.44;6244303;23;20106;-43
2022/09/05 14:49:07;;;;;;;12.88;2.78;;;;;;;20.78;65.90;100205.50;6246542;23;20056;-42
2022/09/05 14:51:55;;;;;;;14.93;4.05;;;;;;;20.49;66.04;100204.34;6241110;23;20055;-43
2022/09/05 14:55:24;;;;;;;16.88;4.68;;;;;;;20.40;66.62;100202.06;6243729;23;20047;-44
2022/09/05 14:58:21;;;;;;;15.95;3.58;;;;;;;20.30;66.76;100191.78;6245553;23;20035;-44
2022/09/05 15:01:29;;;;;;;16.05;3.72;;;;;;;20.17;66.89;100187.94;6243447;23;20031;-43
2022/09/05 15:08:38;;;;;;;26.33;5.43;;;;;;;19.91;67.96;100186.66;6244372;23;20033;-43
2022/09/05 15:20:29;;;;;;;18.23;4.43;;;;;;;19.47;69.84;100155.97;6243206;23;20323;-41
2022/09/05 15:23:19;;;;;;;17.15;4.05;;;;;;;19.55;70.24;100128.59;6243964;23;20028;-43
2022/09/05 15:26:19;;;;;;;15.82;3.45;;;;;;;19.76;70.07;100133.91;6243120;23;20020;-42
2022/09/05 15:29:13;;;;;;;21.95;4.53;;;;;;;20.01;69.68;100131.56;6224039;23;20024;-41
2022/09/05 15:32:21;;;;;;;15.70;3.40;;;;;;;20.10;69.04;100128.19;6245225;23;20024;-44
2022/09/05 16:07:22;;;;;;;20.98;4.38;;;;;;;19.09;75.04;100090.59;6245686;22;20025;-41
2022/09/05 16:10:32;;;;;;;15.45;4.13;;;;;;;19.32;74.50;100087.94;6246405;23;20074;-42
2022/09/05 16:13:42;;;;;;;15.85;4.20;;;;;;;19.38;74.36;100093.91;6244112;23;20024;-39
2022/09/05 16:16:43;;;;;;;15.73;4.30;;;;;;;19.37;74.60;100089.47;6247012;23;20024;-40
2022/09/05 17:22:32;;;;;;;19.17;3.53;;;;;;;18.07;81.38;100074.75;6206723;23;20029;-41
2022/09/05 17:25:47;;;;;;;15.20;3.60;;;;;;;18.06;81.17;100073.97;6212888;22;20435;-45
2022/09/05 17:28:58;;;;;;;17.33;3.67;;;;;;;18.07;81.36;100071.97;6209248;23;20106;-41
2022/09/05 17:32:11;;;;;;;16.47;3.40;;;;;;;18.07;81.23;100069.16;6209346;23;20032;-47
2022/09/05 17:35:10;;;;;;;15.48;3.95;;;;;;;18.05;81.69;100080.00;6208094;23;20435;-42
2022/09/05 17:38:06;;;;;;;21.77;3.83;;;;;;;18.05;82.11;100060.38;6211136;22;20104;-41
2022/09/05 17:41:12;;;;;;;18.20;2.88;;;;;;;18.05;81.89;100063.19;6204897;23;20029;-41
2022/09/05 17:44:22;;;;;;;26.65;5.22;;;;;;;18.05;82.52;100054.78;6208956;23;20016;-41
2022/09/05 17:47:21;;;;;;;25.13;6.43;;;;;;;17.90;83.01;100064.47;6211571;23;20052;-40
2022/09/05 17:50:24;;;;;;;18.47;4.43;;;;;;;17.47;85.61;100052.75;6211043;23;20340;-44
2022/09/05 17:53:20;;;;;;;22.20;4.18;;;;;;;17.28;86.82;100034.47;6211712;22;20024;-41
2022/09/05 17:56:30;;;;;;;20.40;3.58;;;;;;;17.21;87.97;100028.88;6210158;23;20031;-46
2022/09/05 17:59:21;;;;;;;31.15;4.90;;;;;;;17.19;88.57;100039.69;6209500;22;20031;-40
2022/09/05 18:02:08;;;;;;;22.00;4.22;;;;;;;17.14;89.80;100023.31;6207842;23;20119;-43
2022/09/05 18:04:56;;;;;;;20.00;3.63;;;;;;;17.12;89.88;100016.56;6211610;22;20024;-40
2022/09/05 18:07:56;;;;;;;29.48;4.70;;;;;;;17.09;90.49;100026.56;6211884;23;20084;-41
2022/09/05 18:11:00;;;;;;;20.77;4.75;;;;;;;17.08;91.14;100024.94;6207010;23;20025;-50
2022/09/05 18:13:51;;;;;;;25.23;5.05;;;;;;;17.05;91.31;100020.16;6200148;23;20024;-42
2022/09/05 18:16:48;;;;;;;18.53;3.80;;;;;;;17.05;92.15;100020.16;6201798;23;20470;-46
2022/09/05 18:20:04;;;;;;;26.02;4.00;;;;;;;17.05;92.02;100017.38;6208911;23;20025;-42
2022/09/05 18:23:17;;;;;;;16.88;3.58;;;;;;;17.03;92.66;100028.16;6207719;22;20035;-42
2022/09/05 18:26:26;;;;;;;29.50;4.40;;;;;;;17.03;92.64;100019.78;6208091;23;20088;-42
2022/09/05 18:29:33;;;;;;;23.63;7.57;;;;;;;17.04;92.89;100026.97;6209518;22;20075;-45
2022/09/05 18:32:52;;;;;;;19.40;4.75;;;;;;;17.04;93.28;100024.19;6211246;23;20040;-43
2022/09/05 18:35:58;;;;;;;27.50;5.45;;;;;;;17.06;93.32;100021.75;6211880;22;20463;-43
2022/09/05 18:38:45;;;;;;;27.88;6.03;;;;;;;17.07;93.43;100019.78;6209617;22;20024;-43
2022/09/05 18:41:38;;;;;;;28.75;5.70;;;;;;;17.06;93.37;100030.16;6208745;23;20024;-47
2022/09/05 18:44:35;;;;;;;28.58;5.78;;;;;;;17.09;93.59;100032.16;6210658;23;20032;-48
2022/09/05 18:48:04;;;;;;;27.90;5.50;;;;;;;17.10;93.72;100038.53;6208875;22;20036;-41
2022/09/05 18:50:55;;;;;;;34.35;5.32;;;;;;;17.08;93.81;100040.97;6089496;23;20027;-40
2022/09/05 18:54:11;;;;;;;31.77;4.70;;;;;;;17.06;93.65;100052.53;6083840;23;20026;-42
2022/09/05 18:57:12;;;;;;;28.25;6.55;;;;;;;17.02;93.76;100043.38;6210168;22;20028;-42
2022/09/05 19:00:25;;;;;;;20.27;5.05;;;;;;;17.01;93.97;100061.34;6209897;22;20466;-42
2022/09/05 19:03:34;;;;;;;25.67;5.68;;;;;;;17.00;93.90;100057.75;6205615;23;20048;-45
2022/09/05 19:06:25;;;;;;;32.25;6.90;;;;;;;17.01;93.91;100069.72;6209222;23;20020;-40
2022/09/05 19:09:27;;;;;;;30.40;6.10;;;;;;;17.03;93.99;100073.72;6210478;22;20363;-41
2022/09/05 19:12:19;;;;;;;26.02;5.40;;;;;;;17.02;94.14;100055.31;6209051;23;20032;-45
2022/09/05 19:15:33;;;;;;;36.05;5.97;;;;;;;16.99;94.19;100066.53;6208936;23;20347;-39
2022/09/05 19:18:22;;;;;;;28.23;6.13;;;;;;;16.96;94.28;100048.59;6201024;23;20454;-45
2022/09/05 19:21:18;;;;;;;26.63;7.28;;;;;;;16.93;94.27;100062.56;6202285;22;20025;-41
2022/09/05 19:24:10;;;;;;;29.10;6.40;;;;;;;16.92;94.40;100067.34;6210751;23;20082;-41
2022/09/05 19:26:57;;;;;;;23.95;5.65;;;;;;;16.91;94.39;100059.38;6196854;22;20249;-42
2022/09/05 19:30:05;;;;;;;19.92;5.13;;;;;;;16.91;94.24;100056.59;6190210;23;20024;-40
2022/09/05 19:33:23;;;;;;;23.17;5.05;;;;;;;16.91;94.10;100046.22;6205044;23;20039;-41
2022/09/05 19:36:34;;;;;;;21.55;3.88;;;;;;;16.88;93.83;100043.41;6211748;22;20028;-41
2022/09/05 19:39:46;;;;;;;17.70;3.03;;;;;;;16.81;93.86;100049.03;6209945;23;20025;-47
2022/09/05 19:56:22;;;;;;;22.10;5.18;;;;;;;16.58;93.99;100059.84;6205932;23;20029;-41
2022/09/05 19:59:25;;;;;;;13.38;3.55;;;;;;;16.52;94.04;100064.25;6205155;23;20020;-47
2022/09/05 20:06:53;;;;;;;18.75;3.35;;;;;;;16.41;93.99;100079.00;6206960;23;20376;-42
2022/09/05 20:09:45;;;;;;;16.25;4.03;;;;;;;16.35;93.80;100089.00;6204314;23;20034;-47
2022/09/05 20:12:33;;;;;;;18.55;5.13;;;;;;;16.29;93.81;100100.97;6209115;23;20025;-42
2022/09/05 20:18:50;;;;;;;17.58;4.78;;;;;;;16.21;93.99;100088.19;6208657;23;20063;-43
2022/09/05 20:21:20;;;;;;;20.95;4.40;;;;;;;16.20;94.09;100095.78;6209867;23;20075;-42
2022/09/05 20:23:52;;;;;;;22.58;3.45;;;;;;;16.18;94.35;100092.59;6211072;23;20092;-49
2022/09/05 20:31:08;;;;;;;35.25;8.43;;;;;;;16.16;94.53;100091.38;6193841;23;20455;-46
2022/09/05 20:37:30;;;;;;;28.48;4.80;;;;;;;16.15;94.67;100104.56;6206947;23;20017;-42
2022/09/05 20:40:17;;;;;;;21.15;5.43;;;;;;;16.16;94.62;100100.56;6209520;23;20017;-43
2022/09/05 21:10:25;;;;;;;32.65;5.53;;;;;;;16.00;94.52;100121.69;6243337;22;20020;-41
2022/09/05 21:25:52;;;;;;;26.77;5.38;;;;;;;15.84;94.25;100122.06;6245358;23;20016;-40
2022/09/05 21:37:01;;;;;;;25.33;3.45;;;;;;;15.84;93.94;100119.28;6248326;23;20385;-40
2022/09/05 21:39:53;;;;;;;20.33;3.80;;;;;;;15.86;93.98;100118.91;6228153;23;20024;-41
2022/09/05 21:42:41;;;;;;;26.30;4.20;;;;;;;15.86;93.98;100122.47;6249644;23;20016;-41
2022/09/05 21:45:32;;;;;;;26.88;5.55;;;;;;;15.86;94.04;100128.03;6249481;23;20072;-40
2022/09/05 21:48:23;;;;;;;24.05;4.47;;;;;;;15.86;94.09;100119.66;6249640;23;20027;-42
2022/09/05 21:50:59;;;;;;;20.25;5.55;;;;;;;15.88;94.09;100124.88;6223637;23;20012;-41
2022/09/05 21:53:34;;;;;;;32.55;4.13;;;;;;;15.86;94.03;100122.47;6249218;23;20024;-46
2022/09/05 21:56:30;;;;;;;25.25;4.07;;;;;;;15.85;94.01;100134.84;6247959;23;20020;-41
2022/09/05 21:59:38;;;;;;;31.65;4.32;;;;;;;15.87;94.01;100126.06;6245897;23;20347;-40
2022/09/05 22:06:14;;;;;;;28.33;4.32;;;;;;;15.88;93.99;100127.66;6249279;23;20374;-41
2022/09/05 22:13:02;;;;;;;27.63;4.57;;;;;;;15.86;93.86;100122.47;6245376;23;20023;-42
2022/09/05 22:19:10;;;;;;;33.28;6.25;;;;;;;15.85;93.93;100109.72;6244095;23;20020;-44
2022/09/05 22:21:38;;;;;;;23.52;7.28;;;;;;;15.85;94.18;100109.72;6244265;23;20016;-46
2022/09/05 22:24:08;;;;;;;26.38;5.47;;;;;;;15.84;94.22;100100.53;6242300;23;20358;-41
2022/09/05 22:26:39;;;;;;;24.75;4.72;;;;;;;15.86;94.12;100096.56;6244892;23;20095;-41
2022/09/05 22:29:26;;;;;;;34.08;5.88;;;;;;;15.86;94.28;100094.53;6241717;23;20040;-41
2022/09/05 22:31:53;;;;;;;31.60;6.10;;;;;;;15.87;94.45;100101.72;6245578;23;20044;-41
2022/09/05 22:34:28;;;;;;;25.48;6.57;;;;;;;15.88;94.47;100110.91;6244200;23;20516;-41
2022/09/05 22:37:04;;;;;;;32.45;4.30;;;;;;;15.88;94.64;100113.72;6243840;23;20027;-41
2022/09/05 22:39:51;;;;;;;31.25;5.80;;;;;;;15.88;94.62;100125.69;6215687;23;20028;-41
2022/09/05 22:42:38;;;;;;;34.80;6.55;;;;;;;15.88;94.72;100113.72;6244070;23;20020;-41
2022/09/05 22:45:27;;;;;;;23.35;4.38;;;;;;;15.87;94.71;100104.53;6242685;23;20020;-43
2022/09/05 22:48:14;;;;;;;31.15;5.78;;;;;;;15.89;94.80;100096.53;6243969;23;20353;-43
2022/09/05 22:51:01;;;;;;;26.20;5.68;;;;;;;15.88;95.03;100102.53;6242355;23;20358;-41
2022/09/05 22:53:50;;;;;;;35.65;5.82;;;;;;;15.89;95.03;100110.50;6243154;23;20028;-38
2022/09/05 22:56:37;;;;;;;37.13;6.40;;;;;;;15.91;94.96;100099.75;6240307;23;20028;-45
2022/09/05 22:59:24;;;;;;;40.85;7.85;;;;;;;15.88;95.01;100086.59;6219596;23;20467;-41
2022/09/05 23:02:11;;;;;;;34.75;5.72;;;;;;;15.88;94.98;100086.59;6241722;22;20034;-41
2022/09/05 23:04:38;;;;;;;36.42;6.47;;;;;;;15.89;95.05;100081.78;6242527;23;20337;-41